sensor_id;sensor_type;location;lat;lon;timestamp;pressure;altitude;pressure_sealevel;temperature;humidity
5883;BME280;2967;51.488;6.618;2024-01-30T00:01:15;102439.44;;;10.30;100.00
5883;BME280;2967;51.488;6.618;2024-01-30T00:06:20;102377.28;;;9.94;100.00
5883;BME280;2967;51.488;6.618;2024-01-30T00:11:23;102399.81;;;10.05;100.00
5883;BME280;2967;51.488;6.618;2024-01-30T00:16:28;102425.66;;;10.20;100.00
5883;BME280;2967;51.488;6.618;2024-01-30T00:21:32;102429.22;;;10.19;100.00
5883;BME280;2967;51.488;6.618;2024-01-30T00:26:35;102396.50;;;9.99;100.00
5883;BME280;2967;51.488;6.618;2024-01-30T00:31:38;102417.56;;;10.25;100.00
5883;BME280;2967;51.488;6.618;2024-01-30T00:36:44;102408.88;;;10.21;100.00
5883;BME280;2967;51.488;6.618;2024-01-30T00:41:47;102382.84;;;10.11;100.00
5883;BME280;2967;51.488;6.618;2024-01-30T00:46:50;102413.91;;;10.29;100.00
5883;BME280;2967;51.488;6.618;2024-01-30T00:51:54;102416.72;;;10.24;100.00
5883;BME280;2967;51.488;6.618;2024-01-30T00:56:56;102407.97;;;10.22;100.00
5883;BME280;2967;51.488;6.618;2024-01-30T01:01:59;102418.50;;;10.24;100.00
5883;BME280;2967;51.488;6.618;2024-01-30T01:07:04;102424.66;;;10.24;100.00
5883;BME280;2967;51.488;6.618;2024-01-30T01:12:07;102422.06;;;10.23;100.00
5883;BME280;2967;51.488;6.618;2024-01-30T01:17:09;102411.19;;;10.30;100.00
5883;BME280;2967;51.488;6.618;2024-01-30T01:22:13;102416.63;;;10.26;100.00
5883;BME280;2967;51.488;6.618;2024-01-30T01:27:16;102413.03;;;10.28;100.00
5883;BME280;2967;51.488;6.618;2024-01-30T01:32:19;102397.50;;;10.19;100.00
5883;BME280;2967;51.488;6.618;2024-01-30T01:37:24;102383.41;;;10.42;100.00
5883;BME280;2967;51.488;6.618;2024-01-30T01:42:28;102412.38;;;10.67;100.00
5883;BME280;2967;51.488;6.618;2024-01-30T01:47:30;102397.94;;;10.53;100.00
5883;BME280;2967;51.488;6.618;2024-01-30T01:52:38;102407.84;;;10.48;100.00
5883;BME280;2967;51.488;6.618;2024-01-30T01:57:41;102391.38;;;10.40;100.00
5883;BME280;2967;51.488;6.618;2024-01-30T02:02:45;102402.09;;;10.37;100.00
5883;BME280;2967;51.488;6.618;2024-01-30T02:07:50;102398.66;;;10.35;100.00
5883;BME280;2967;51.488;6.618;2024-01-30T02:12:53;102310.88;;;9.80;100.00
5883;BME280;2967;51.488;6.618;2024-01-30T02:17:56;102381.28;;;10.28;100.00
5883;BME280;2967;51.488;6.618;2024-01-30T02:23:00;102383.13;;;10.26;100.00
5883;BME280;2967;51.488;6.618;2024-01-30T02:28:04;102314.91;;;9.90;100.00
5883;BME280;2967;51.488;6.618;2024-01-30T02:33:07;102369.03;;;10.26;100.00
5883;BME280;2967;51.488;6.618;2024-01-30T02:38:12;102361.34;;;10.20;100.00
5883;BME280;2967;51.488;6.618;2024-01-30T02:43:16;102360.72;;;10.13;100.00
5883;BME280;2967;51.488;6.618;2024-01-30T02:48:19;102357.91;;;10.18;100.00
5883;BME280;2967;51.488;6.618;2024-01-30T02:53:23;102316.66;;;9.89;100.00
5883;BME280;2967;51.488;6.618;2024-01-30T02:58:26;102336.72;;;9.95;100.00
5883;BME280;2967;51.488;6.618;2024-01-30T03:03:29;102353.78;;;10.11;100.00
5883;BME280;2967;51.488;6.618;2024-01-30T03:08:33;102356.25;;;10.15;100.00
5883;BME280;2967;51.488;6.618;2024-01-30T03:13:36;102349.06;;;10.19;100.00
5883;BME280;2967;51.488;6.618;2024-01-30T03:18:39;102322.56;;;9.96;100.00
5883;BME280;2967;51.488;6.618;2024-01-30T03:23:43;102344.16;;;10.08;100.00
5883;BME280;2967;51.488;6.618;2024-01-30T03:28:45;102347.44;;;10.15;100.00
5883;BME280;2967;51.488;6.618;2024-01-30T03:33:48;102337.09;;;10.09;100.00
5883;BME280;2967;51.488;6.618;2024-01-30T03:38:52;102341.84;;;9.99;100.00
5883;BME280;2967;51.488;6.618;2024-01-30T03:43:55;102346.38;;;9.96;100.00
5883;BME280;2967;51.488;6.618;2024-01-30T03:48:58;102292.94;;;9.65;100.00
5883;BME280;2967;51.488;6.618;2024-01-30T03:54:02;102306.94;;;9.67;100.00
5883;BME280;2967;51.488;6.618;2024-01-30T03:59:05;102327.19;;;9.91;100.00
5883;BME280;2967;51.488;6.618;2024-01-30T04:04:07;102323.03;;;9.84;100.00
5883;BME280;2967;51.488;6.618;2024-01-30T04:09:12;102319.88;;;9.74;100.00
5883;BME280;2967;51.488;6.618;2024-01-30T04:14:16;102285.94;;;9.64;100.00
5883;BME280;2967;51.488;6.618;2024-01-30T04:19:38;102314.31;;;9.82;100.00
5883;BME280;2967;51.488;6.618;2024-01-30T04:25:03;102319.81;;;9.76;100.00
5883;BME280;2967;51.488;6.618;2024-01-30T04:30:07;102304.09;;;9.73;100.00
5883;BME280;2967;51.488;6.618;2024-01-30T04:35:10;102309.91;;;9.82;100.00
5883;BME280;2967;51.488;6.618;2024-01-30T04:40:15;102311.16;;;9.72;100.00
5883;BME280;2967;51.488;6.618;2024-01-30T04:45:18;102296.75;;;9.58;100.00
5883;BME280;2967;51.488;6.618;2024-01-30T04:50:20;102313.28;;;9.63;100.00
5883;BME280;2967;51.488;6.618;2024-01-30T04:55:25;102311.66;;;9.82;100.00
5883;BME280;2967;51.488;6.618;2024-01-30T05:00:28;102315.53;;;9.73;100.00
5883;BME280;2967;51.488;6.618;2024-01-30T05:05:31;102314.66;;;9.73;100.00
5883;BME280;2967;51.488;6.618;2024-01-30T05:10:35;102295.53;;;9.66;100.00
5883;BME280;2967;51.488;6.618;2024-01-30T05:15:38;102306.84;;;9.70;100.00
5883;BME280;2967;51.488;6.618;2024-01-30T05:20:43;102307.19;;;9.61;100.00
5883;BME280;2967;51.488;6.618;2024-01-30T05:25:47;102308.75;;;9.66;100.00
5883;BME280;2967;51.488;6.618;2024-01-30T05:30:52;102200.38;;;9.22;100.00
5883;BME280;2967;51.488;6.618;2024-01-30T05:35:55;102294.03;;;9.82;100.00
5883;BME280;2967;51.488;6.618;2024-01-30T05:40:59;102272.59;;;9.67;100.00
5883;BME280;2967;51.488;6.618;2024-01-30T05:46:02;102257.91;;;9.60;100.00
5883;BME280;2967;51.488;6.618;2024-01-30T05:51:07;102288.94;;;9.78;100.00
5883;BME280;2967;51.488;6.618;2024-01-30T05:56:11;102235.63;;;9.44;100.00
5883;BME280;2967;51.488;6.618;2024-01-30T06:01:17;102297.06;;;9.72;100.00
5883;BME280;2967;51.488;6.618;2024-01-30T06:06:20;102297.59;;;9.81;100.00
5883;BME280;2967;51.488;6.618;2024-01-30T06:11:24;102305.81;;;9.74;100.00
5883;BME280;2967;51.488;6.618;2024-01-30T06:16:27;102303.41;;;9.68;100.00
5883;BME280;2967;51.488;6.618;2024-01-30T06:21:33;102298.81;;;9.73;100.00
5883;BME280;2967;51.488;6.618;2024-01-30T06:26:44;102280.19;;;9.53;100.00
5883;BME280;2967;51.488;6.618;2024-01-30T06:31:47;102294.78;;;9.63;100.00
5883;BME280;2967;51.488;6.618;2024-01-30T06:36:50;102282.31;;;9.66;100.00
5883;BME280;2967;51.488;6.618;2024-01-30T06:41:54;102285.81;;;9.67;100.00
5883;BME280;2967;51.488;6.618;2024-01-30T06:46:57;102265.94;;;9.57;100.00
5883;BME280;2967;51.488;6.618;2024-01-30T06:52:01;102262.56;;;9.53;100.00
5883;BME280;2967;51.488;6.618;2024-01-30T06:57:05;102302.50;;;9.69;100.00
5883;BME280;2967;51.488;6.618;2024-01-30T07:02:10;102286.69;;;9.67;100.00
5883;BME280;2967;51.488;6.618;2024-01-30T07:07:13;102314.44;;;9.79;100.00
5883;BME280;2967;51.488;6.618;2024-01-30T07:12:18;102299.78;;;9.70;100.00
5883;BME280;2967;51.488;6.618;2024-01-30T07:17:27;102322.47;;;9.76;100.00
5883;BME280;2967;51.488;6.618;2024-01-30T07:22:29;102323.84;;;9.86;100.00
5883;BME280;2967;51.488;6.618;2024-01-30T07:27:34;102322.28;;;9.80;100.00
5883;BME280;2967;51.488;6.618;2024-01-30T07:32:36;102336.25;;;9.84;100.00
5883;BME280;2967;51.488;6.618;2024-01-30T07:37:39;102339.44;;;9.93;100.00
5883;BME280;2967;51.488;6.618;2024-01-30T07:42:43;102305.13;;;9.69;100.00
5883;BME280;2967;51.488;6.618;2024-01-30T07:47:47;102333.41;;;9.90;100.00
5883;BME280;2967;51.488;6.618;2024-01-30T07:52:52;102339.44;;;9.93;100.00
5883;BME280;2967;51.488;6.618;2024-01-30T07:57:57;102355.66;;;10.07;100.00
5883;BME280;2967;51.488;6.618;2024-01-30T08:03:00;102353.78;;;10.11;100.00
5883;BME280;2967;51.488;6.618;2024-01-30T08:08:03;102365.13;;;10.13;100.00
5883;BME280;2967;51.488;6.618;2024-01-30T08:13:07;102353.19;;;10.01;100.00
5883;BME280;2967;51.488;6.618;2024-01-30T08:18:10;102377.44;;;10.14;100.00
5883;BME280;2967;51.488;6.618;2024-01-30T08:23:13;102372.84;;;10.19;100.00
5883;BME280;2967;51.488;6.618;2024-01-30T08:28:17;102240.69;;;9.50;100.00
5883;BME280;2967;51.488;6.618;2024-01-30T08:33:22;102367.66;;;10.39;100.00
5883;BME280;2967;51.488;6.618;2024-01-30T08:38:25;102360.88;;;10.32;100.00
5883;BME280;2967;51.488;6.618;2024-01-30T08:43:30;102373.56;;;10.45;100.00
5883;BME280;2967;51.488;6.618;2024-01-30T08:48:33;102376.97;;;10.48;100.00
5883;BME280;2967;51.488;6.618;2024-01-30T08:53:36;102383.44;;;10.40;100.00
5883;BME280;2967;51.488;6.618;2024-01-30T08:58:40;102387.59;;;10.47;100.00
5883;BME280;2967;51.488;6.618;2024-01-30T09:03:43;102290.19;;;9.91;100.00
5883;BME280;2967;51.488;6.618;2024-01-30T09:08:47;102316.97;;;10.05;100.00
5883;BME280;2967;51.488;6.618;2024-01-30T09:13:51;102410.25;;;10.54;100.00
5883;BME280;2967;51.488;6.618;2024-01-30T09:18:55;102406.59;;;10.56;100.00
5883;BME280;2967;51.488;6.618;2024-01-30T09:24:01;102409.25;;;10.56;100.00
5883;BME280;2967;51.488;6.618;2024-01-30T09:29:06;102363.09;;;10.42;100.00
5883;BME280;2967;51.488;6.618;2024-01-30T09:34:10;102389.56;;;10.63;100.00
5883;BME280;2967;51.488;6.618;2024-01-30T09:39:13;102387.50;;;10.71;100.00
5883;BME280;2967;51.488;6.618;2024-01-30T09:44:20;102310.00;;;10.25;100.00
5883;BME280;2967;51.488;6.618;2024-01-30T09:49:25;102402.63;;;10.89;100.00
5883;BME280;2967;51.488;6.618;2024-01-30T09:54:30;102411.06;;;10.99;100.00
5883;BME280;2967;51.488;6.618;2024-01-30T09:59:38;102396.84;;;11.01;100.00
5883;BME280;2967;51.488;6.618;2024-01-30T10:04:42;102371.47;;;10.96;100.00
5883;BME280;2967;51.488;6.618;2024-01-30T10:09:47;102387.19;;;11.00;100.00
5883;BME280;2967;51.488;6.618;2024-01-30T10:14:52;102421.78;;;11.17;100.00
5883;BME280;2967;51.488;6.618;2024-01-30T10:19:55;102421.50;;;11.23;100.00
5883;BME280;2967;51.488;6.618;2024-01-30T10:24:59;102367.09;;;10.95;100.00
5883;BME280;2967;51.488;6.618;2024-01-30T10:30:09;102361.34;;;11.05;100.00
5883;BME280;2967;51.488;6.618;2024-01-30T10:35:12;102421.47;;;11.45;100.00
5883;BME280;2967;51.488;6.618;2024-01-30T10:40:15;102426.44;;;11.52;100.00
5883;BME280;2967;51.488;6.618;2024-01-30T10:45:20;102424.53;;;11.56;100.00
5883;BME280;2967;51.488;6.618;2024-01-30T10:50:25;102404.78;;;11.43;100.00
5883;BME280;2967;51.488;6.618;2024-01-30T10:55:28;102379.72;;;11.30;100.00
5883;BME280;2967;51.488;6.618;2024-01-30T11:00:38;102418.97;;;11.62;100.00
5883;BME280;2967;51.488;6.618;2024-01-30T11:05:41;102034.34;;;9.36;100.00
5883;BME280;2967;51.488;6.618;2024-01-30T11:10:46;102419.47;;;11.71;100.00
5883;BME280;2967;51.488;6.618;2024-01-30T11:15:51;102408.31;;;11.63;100.00
5883;BME280;2967;51.488;6.618;2024-01-30T11:20:57;102424.91;;;11.68;100.00
5883;BME280;2967;51.488;6.618;2024-01-30T11:26:00;102421.19;;;11.72;100.00
5883;BME280;2967;51.488;6.618;2024-01-30T11:31:06;102427.13;;;11.77;100.00
5883;BME280;2967;51.488;6.618;2024-01-30T11:36:11;102399.59;;;11.61;100.00
5883;BME280;2967;51.488;6.618;2024-01-30T11:41:16;102424.38;;;11.80;100.00
5883;BME280;2967;51.488;6.618;2024-01-30T11:46:24;102375.88;;;11.58;100.00
5883;BME280;2967;51.488;6.618;2024-01-30T11:51:28;102327.66;;;11.29;100.00
5883;BME280;2967;51.488;6.618;2024-01-30T11:56:33;102403.00;;;11.83;100.00
5883;BME280;2967;51.488;6.618;2024-01-30T12:01:37;102409.09;;;11.85;100.00
5883;BME280;2967;51.488;6.618;2024-01-30T12:06:42;102405.09;;;11.95;100.00
5883;BME280;2967;51.488;6.618;2024-01-30T12:11:45;102406.34;;;11.88;100.00
5883;BME280;2967;51.488;6.618;2024-01-30T12:16:49;102408.53;;;11.97;100.00
5883;BME280;2967;51.488;6.618;2024-01-30T12:21:56;102400.47;;;12.00;100.00
5883;BME280;2967;51.488;6.618;2024-01-30T12:27:00;102415.97;;;12.09;100.00
5883;BME280;2967;51.488;6.618;2024-01-30T12:32:05;102411.47;;;12.11;100.00
5883;BME280;2967;51.488;6.618;2024-01-30T12:37:08;102409.75;;;12.10;100.00
5883;BME280;2967;51.488;6.618;2024-01-30T12:42:13;102401.00;;;12.08;100.00
5883;BME280;2967;51.488;6.618;2024-01-30T12:47:17;102410.09;;;12.21;100.00
5883;BME280;2967;51.488;6.618;2024-01-30T12:52:21;102414.47;;;12.22;100.00
5883;BME280;2967;51.488;6.618;2024-01-30T12:57:24;102416.00;;;12.28;100.00
5883;BME280;2967;51.488;6.618;2024-01-30T13:02:28;102413.28;;;12.29;100.00
5883;BME280;2967;51.488;6.618;2024-01-30T13:07:36;102400.06;;;12.28;100.00
5883;BME280;2967;51.488;6.618;2024-01-30T13:12:40;102423.94;;;12.46;100.00
5883;BME280;2967;51.488;6.618;2024-01-30T13:17:44;102396.13;;;12.36;100.00
5883;BME280;2967;51.488;6.618;2024-01-30T13:22:50;102392.63;;;12.36;100.00
5883;BME280;2967;51.488;6.618;2024-01-30T13:27:53;102426.06;;;12.58;100.00
5883;BME280;2967;51.488;6.618;2024-01-30T13:32:57;102428.34;;;12.66;100.00
5883;BME280;2967;51.488;6.618;2024-01-30T13:38:00;102421.44;;;12.62;100.00
5883;BME280;2967;51.488;6.618;2024-01-30T13:43:03;102415.72;;;12.52;100.00
5883;BME280;2967;51.488;6.618;2024-01-30T13:48:08;102440.91;;;12.62;100.00
5883;BME280;2967;51.488;6.618;2024-01-30T13:53:10;102435.75;;;12.59;100.00
5883;BME280;2967;51.488;6.618;2024-01-30T13:58:15;102448.06;;;12.60;100.00
5883;BME280;2967;51.488;6.618;2024-01-30T14:03:20;102411.63;;;12.45;100.00
5883;BME280;2967;51.488;6.618;2024-01-30T14:08:23;102439.47;;;12.74;100.00
5883;BME280;2967;51.488;6.618;2024-01-30T14:13:29;102382.94;;;12.35;100.00
5883;BME280;2967;51.488;6.618;2024-01-30T14:18:35;102464.00;;;12.79;100.00
5883;BME280;2967;51.488;6.618;2024-01-30T14:23:38;102419.50;;;12.47;100.00
5883;BME280;2967;51.488;6.618;2024-01-30T14:28:44;102465.50;;;12.66;100.00
5883;BME280;2967;51.488;6.618;2024-01-30T14:33:50;102432.28;;;12.39;100.00
5883;BME280;2967;51.488;6.618;2024-01-30T14:38:53;102477.56;;;12.54;100.00
5883;BME280;2967;51.488;6.618;2024-01-30T14:43:59;102496.13;;;12.54;100.00
5883;BME280;2967;51.488;6.618;2024-01-30T14:49:04;102507.53;;;12.56;100.00
5883;BME280;2967;51.488;6.618;2024-01-30T14:54:12;102495.75;;;12.43;100.00
5883;BME280;2967;51.488;6.618;2024-01-30T14:59:18;102507.94;;;12.47;100.00
5883;BME280;2967;51.488;6.618;2024-01-30T15:04:25;102522.97;;;12.48;100.00
5883;BME280;2967;51.488;6.618;2024-01-30T15:09:30;102511.69;;;12.43;100.00
5883;BME280;2967;51.488;6.618;2024-01-30T15:14:39;102532.56;;;12.51;100.00
5883;BME280;2967;51.488;6.618;2024-01-30T15:19:43;102544.53;;;12.41;100.00
5883;BME280;2967;51.488;6.618;2024-01-30T15:24:46;102548.31;;;12.35;100.00
5883;BME280;2967;51.488;6.618;2024-01-30T15:29:51;102554.66;;;12.33;100.00
5883;BME280;2967;51.488;6.618;2024-01-30T15:35:00;102570.09;;;12.23;100.00
5883;BME280;2967;51.488;6.618;2024-01-30T15:40:07;102551.47;;;12.05;99.37
5883;BME280;2967;51.488;6.618;2024-01-30T15:45:11;102570.34;;;12.17;99.18
5883;BME280;2967;51.488;6.618;2024-01-30T15:50:15;102498.06;;;11.51;98.66
5883;BME280;2967;51.488;6.618;2024-01-30T15:55:20;102555.81;;;11.86;98.46
5883;BME280;2967;51.488;6.618;2024-01-30T16:00:24;102600.38;;;11.98;97.89
5883;BME280;2967;51.488;6.618;2024-01-30T16:05:36;102488.16;;;11.34;97.29
5883;BME280;2967;51.488;6.618;2024-01-30T16:10:50;102604.09;;;11.94;96.86
5883;BME280;2967;51.488;6.618;2024-01-30T16:16:13;102469.66;;;10.68;96.81
5883;BME280;2967;51.488;6.618;2024-01-30T16:21:39;102530.38;;;11.17;95.57
5883;BME280;2967;51.488;6.618;2024-01-30T16:27:04;102573.03;;;11.33;96.13
5883;BME280;2967;51.488;6.618;2024-01-30T16:32:07;102638.94;;;11.63;96.04
5883;BME280;2967;51.488;6.618;2024-01-30T16:37:11;102638.16;;;11.61;97.19
5883;BME280;2967;51.488;6.618;2024-01-30T16:42:14;102646.56;;;11.71;96.84
5883;BME280;2967;51.488;6.618;2024-01-30T16:47:19;102654.16;;;11.80;98.25
5883;BME280;2967;51.488;6.618;2024-01-30T16:52:27;102681.19;;;11.68;100.00
5883;BME280;2967;51.488;6.618;2024-01-30T16:57:30;102682.72;;;11.50;100.00
5883;BME280;2967;51.488;6.618;2024-01-30T17:02:40;102628.16;;;11.00;100.00
5883;BME280;2967;51.488;6.618;2024-01-30T17:07:45;102715.97;;;11.36;100.00
5883;BME280;2967;51.488;6.618;2024-01-30T17:12:51;102727.38;;;11.38;100.00
5883;BME280;2967;51.488;6.618;2024-01-30T17:18:21;102724.59;;;11.18;100.00
5883;BME280;2967;51.488;6.618;2024-01-30T17:23:25;102665.41;;;10.71;100.00
5883;BME280;2967;51.488;6.618;2024-01-30T17:28:31;102748.06;;;11.04;100.00
5883;BME280;2967;51.488;6.618;2024-01-30T17:33:33;102764.94;;;11.01;100.00
5883;BME280;2967;51.488;6.618;2024-01-30T17:38:38;102765.91;;;10.99;100.00
5883;BME280;2967;51.488;6.618;2024-01-30T17:43:43;102762.59;;;10.92;100.00
5883;BME280;2967;51.488;6.618;2024-01-30T17:48:46;102756.09;;;10.76;100.00
5883;BME280;2967;51.488;6.618;2024-01-30T17:53:55;102733.66;;;10.62;100.00
5883;BME280;2967;51.488;6.618;2024-01-30T17:58:58;102781.94;;;10.94;100.00
5883;BME280;2967;51.488;6.618;2024-01-30T18:04:04;102780.16;;;10.70;100.00
5883;BME280;2967;51.488;6.618;2024-01-30T18:09:08;102800.22;;;10.77;100.00
5883;BME280;2967;51.488;6.618;2024-01-30T18:14:12;102789.28;;;10.86;100.00
5883;BME280;2967;51.488;6.618;2024-01-30T18:19:20;102619.22;;;9.79;100.00
5883;BME280;2967;51.488;6.618;2024-01-30T18:24:29;102656.13;;;10.10;100.00
5883;BME280;2967;51.488;6.618;2024-01-30T18:29:33;102804.44;;;10.83;100.00
5883;BME280;2967;51.488;6.618;2024-01-30T18:34:38;102795.66;;;10.81;100.00
5883;BME280;2967;51.488;6.618;2024-01-30T18:39:42;102810.69;;;10.80;100.00
5883;BME280;2967;51.488;6.618;2024-01-30T18:44:47;102826.69;;;10.77;100.00
5883;BME280;2967;51.488;6.618;2024-01-30T18:49:50;102732.16;;;10.02;100.00
5883;BME280;2967;51.488;6.618;2024-01-30T18:54:56;102846.84;;;10.81;100.00
5883;BME280;2967;51.488;6.618;2024-01-30T18:59:58;102847.94;;;10.74;100.00
5883;BME280;2967;51.488;6.618;2024-01-30T19:05:01;102852.09;;;10.83;100.00
5883;BME280;2967;51.488;6.618;2024-01-30T19:10:08;102839.44;;;10.65;100.00
5883;BME280;2967;51.488;6.618;2024-01-30T19:15:11;102844.69;;;10.66;100.00
5883;BME280;2967;51.488;6.618;2024-01-30T19:20:14;102871.25;;;10.63;100.00
5883;BME280;2967;51.488;6.618;2024-01-30T19:25:18;102847.44;;;10.36;100.00
5883;BME280;2967;51.488;6.618;2024-01-30T19:30:22;102875.53;;;10.40;100.00
5883;BME280;2967;51.488;6.618;2024-01-30T19:35:24;102872.81;;;10.43;100.00
5883;BME280;2967;51.488;6.618;2024-01-30T19:40:29;102883.44;;;10.42;100.00
5883;BME280;2967;51.488;6.618;2024-01-30T19:45:32;102883.94;;;10.25;100.00
5883;BME280;2967;51.488;6.618;2024-01-30T19:50:35;102834.28;;;10.06;100.00
5883;BME280;2967;51.488;6.618;2024-01-30T19:55:39;102845.41;;;10.17;100.00
5883;BME280;2967;51.488;6.618;2024-01-30T20:00:42;102912.41;;;10.46;100.00
5883;BME280;2967;51.488;6.618;2024-01-30T20:05:45;102912.44;;;10.44;100.00
5883;BME280;2967;51.488;6.618;2024-01-30T20:10:49;102916.78;;;10.18;100.00
5883;BME280;2967;51.488;6.618;2024-01-30T20:15:52;102923.28;;;10.36;100.00
5883;BME280;2967;51.488;6.618;2024-01-30T20:20:55;102901.72;;;10.20;100.00
5883;BME280;2967;51.488;6.618;2024-01-30T20:26:02;102917.44;;;10.25;100.00
5883;BME280;2967;51.488;6.618;2024-01-30T20:31:05;102930.19;;;9.80;100.00
5883;BME280;2967;51.488;6.618;2024-01-30T20:36:08;102932.38;;;9.65;100.00
5883;BME280;2967;51.488;6.618;2024-01-30T20:41:12;102935.00;;;9.97;100.00
5883;BME280;2967;51.488;6.618;2024-01-30T20:46:15;102940.97;;;10.05;100.00
5883;BME280;2967;51.488;6.618;2024-01-30T20:51:19;102933.81;;;10.08;100.00
5883;BME280;2967;51.488;6.618;2024-01-30T20:56:23;102960.94;;;10.15;100.00
5883;BME280;2967;51.488;6.618;2024-01-30T21:01:26;102959.06;;;10.20;100.00
5883;BME280;2967;51.488;6.618;2024-01-30T21:06:29;102957.19;;;10.23;100.00
5883;BME280;2967;51.488;6.618;2024-01-30T21:11:33;102968.34;;;10.34;100.00
5883;BME280;2967;51.488;6.618;2024-01-30T21:16:38;102928.66;;;10.04;100.00
5883;BME280;2967;51.488;6.618;2024-01-30T21:21:40;102966.06;;;10.21;100.00
5883;BME280;2967;51.488;6.618;2024-01-30T21:26:45;102942.03;;;9.98;100.00
5883;BME280;2967;51.488;6.618;2024-01-30T21:31:47;102938.38;;;10.03;100.00
5883;BME280;2967;51.488;6.618;2024-01-30T21:36:50;102931.31;;;10.04;100.00
5883;BME280;2967;51.488;6.618;2024-01-30T21:41:55;102965.13;;;10.23;100.00
5883;BME280;2967;51.488;6.618;2024-01-30T21:46:58;102916.72;;;9.89;100.00
5883;BME280;2967;51.488;6.618;2024-01-30T21:52:01;102965.47;;;10.11;100.00
5883;BME280;2967;51.488;6.618;2024-01-30T21:57:08;102984.50;;;10.24;100.00
5883;BME280;2967;51.488;6.618;2024-01-30T22:02:11;102982.78;;;10.21;100.00
5883;BME280;2967;51.488;6.618;2024-01-30T22:07:14;102949.81;;;10.04;100.00
5883;BME280;2967;51.488;6.618;2024-01-30T22:12:18;102993.44;;;10.20;100.00
5883;BME280;2967;51.488;6.618;2024-01-30T22:17:21;102952.63;;;9.98;100.00
5883;BME280;2967;51.488;6.618;2024-01-30T22:22:24;102964.81;;;10.02;100.00
5883;BME280;2967;51.488;6.618;2024-01-30T22:27:29;102993.47;;;10.18;100.00
5883;BME280;2967;51.488;6.618;2024-01-30T22:32:34;102997.03;;;10.17;100.00
5883;BME280;2967;51.488;6.618;2024-01-30T22:37:38;103016.59;;;10.12;100.00
5883;BME280;2967;51.488;6.618;2024-01-30T22:42:42;103007.13;;;10.02;100.00
5883;BME280;2967;51.488;6.618;2024-01-30T22:47:45;102998.44;;;9.97;100.00
5883;BME280;2967;51.488;6.618;2024-01-30T22:52:48;103020.25;;;10.06;100.00
5883;BME280;2967;51.488;6.618;2024-01-30T22:57:52;103012.50;;;9.99;100.00
5883;BME280;2967;51.488;6.618;2024-01-30T23:02:56;103045.00;;;10.04;100.00
5883;BME280;2967;51.488;6.618;2024-01-30T23:07:59;103041.84;;;9.90;100.00
5883;BME280;2967;51.488;6.618;2024-01-30T23:13:03;102963.16;;;9.34;100.00
5883;BME280;2967;51.488;6.618;2024-01-30T23:18:06;103054.19;;;9.89;100.00
5883;BME280;2967;51.488;6.618;2024-01-30T23:23:09;103059.47;;;9.89;100.00
5883;BME280;2967;51.488;6.618;2024-01-30T23:28:13;103063.72;;;9.95;100.00
5883;BME280;2967;51.488;6.618;2024-01-30T23:33:16;103062.09;;;9.91;100.00
5883;BME280;2967;51.488;6.618;2024-01-30T23:38:19;103047.38;;;9.79;100.00
5883;BME280;2967;51.488;6.618;2024-01-30T23:43:24;103044.84;;;9.76;100.00
5883;BME280;2967;51.488;6.618;2024-01-30T23:48:32;103051.22;;;9.68;100.00
5883;BME280;2967;51.488;6.618;2024-01-30T23:53:35;103073.91;;;9.76;100.00
5883;BME280;2967;51.488;6.618;2024-01-30T23:58:39;103055.50;;;9.73;100.00
